createdAt,value
2023-01-31T00:01:35.553Z,24.24
2023-01-31T00:04:04.950Z,24.21
2023-01-31T00:06:34.002Z,24.19
2023-01-31T00:09:02.241Z,24.18
2023-01-31T00:11:30.753Z,24.13
2023-01-31T00:14:01.105Z,24.09
2023-01-31T00:16:28.075Z,24.08
2023-01-31T00:18:54.877Z,24.03
2023-01-31T00:21:27.486Z,24.00
2023-01-31T00:23:55.517Z,23.97
2023-01-31T00:26:31.267Z,23.92
2023-01-31T00:29:00.698Z,23.91
2023-01-31T00:31:28.817Z,23.88
2023-01-31T00:33:56.390Z,23.37
2023-01-31T00:36:26.288Z,23.34
2023-01-31T00:38:55.006Z,23.75
2023-01-31T00:41:23.317Z,23.72
2023-01-31T00:43:50.747Z,23.70
2023-01-31T00:46:20.178Z,23.65
2023-01-31T00:48:46.872Z,23.72
2023-01-31T00:51:13.688Z,23.66
2023-01-31T00:53:40.118Z,23.69
2023-01-31T00:56:09.705Z,23.67
2023-01-31T00:58:37.154Z,23.68
2023-01-31T01:01:12.157Z,23.67
2023-01-31T01:03:39.755Z,23.60
2023-01-31T01:06:07.115Z,23.54
2023-01-31T01:08:34.683Z,23.58
2023-01-31T01:11:11.028Z,23.54
2023-01-31T01:13:38.079Z,23.49
2023-01-31T01:16:09.597Z,23.50
2023-01-31T01:18:36.629Z,23.50
2023-01-31T01:21:09.579Z,23.46
2023-01-31T01:23:37.100Z,23.42
2023-01-31T01:26:03.923Z,23.39
2023-01-31T01:31:06.544Z,23.33
2023-01-31T01:33:33.148Z,23.35
2023-01-31T01:36:04.569Z,23.31
2023-01-31T01:38:31.373Z,23.29
2023-01-31T01:40:57.847Z,23.26
2023-01-31T01:43:50.763Z,23.28
2023-01-31T01:46:24.898Z,23.23
2023-01-31T01:48:57.482Z,23.23
2023-01-31T01:51:24.978Z,23.21
2023-01-31T01:53:55.285Z,23.20
2023-01-31T01:56:26.866Z,23.16
2023-01-31T01:59:15.200Z,23.12
2023-01-31T02:01:43.253Z,23.10
2023-01-31T02:04:15.217Z,23.08
2023-01-31T02:06:43.320Z,23.06
2023-01-31T02:09:30.941Z,23.03
2023-01-31T02:11:58.828Z,22.98
2023-01-31T02:14:27.002Z,22.99
2023-01-31T02:16:53.966Z,22.96
2023-01-31T02:19:52.582Z,22.95
2023-01-31T02:22:32.422Z,22.91
2023-01-31T02:25:26.785Z,22.90
2023-01-31T02:28:26.604Z,22.88
2023-01-31T02:31:25.482Z,22.87
2023-01-31T02:34:19.447Z,22.85
2023-01-31T02:37:13.331Z,22.83
2023-01-31T02:40:12.570Z,22.79
2023-01-31T02:43:18.155Z,22.79
2023-01-31T02:46:02.070Z,22.76
2023-01-31T02:48:53.622Z,22.75
2023-01-31T02:51:24.900Z,22.69
2023-01-31T02:54:06.297Z,22.70
2023-01-31T02:56:35.621Z,22.69
2023-01-31T02:59:12.148Z,22.69
2023-01-31T03:01:46.342Z,22.69
2023-01-31T03:04:14.811Z,22.64
2023-01-31T03:06:54.577Z,22.64
2023-01-31T03:09:36.598Z,22.62
2023-01-31T03:12:21.645Z,22.59
2023-01-31T03:15:06.815Z,22.61
2023-01-31T03:17:47.340Z,22.59
2023-01-31T03:20:29.444Z,22.58
2023-01-31T03:23:03.522Z,22.55
2023-01-31T03:25:34.623Z,22.53
2023-01-31T03:28:09.178Z,22.52
2023-01-31T03:30:45.557Z,22.51
2023-01-31T03:33:26.520Z,22.48
2023-01-31T03:36:04.733Z,22.45
2023-01-31T03:38:37.171Z,22.43
2023-01-31T03:41:18.399Z,22.41
2023-01-31T03:43:50.650Z,22.41
2023-01-31T03:46:44.313Z,22.39
2023-01-31T03:49:15.279Z,22.37
2023-01-31T03:51:47.928Z,22.35
2023-01-31T03:54:22.768Z,22.33
2023-01-31T03:56:57.724Z,22.32
2023-01-31T03:59:37.096Z,22.32
2023-01-31T04:02:06.412Z,22.32
2023-01-31T04:04:42.648Z,22.27
2023-01-31T04:07:09.627Z,22.25
2023-01-31T04:09:38.699Z,22.26
2023-01-31T04:12:05.422Z,22.25
2023-01-31T04:14:32.126Z,22.24
2023-01-31T04:16:58.686Z,22.22
2023-01-31T04:19:25.232Z,22.21
2023-01-31T04:21:51.672Z,22.19
2023-01-31T04:24:18.089Z,22.18
2023-01-31T04:26:44.549Z,22.17
2023-01-31T04:29:10.968Z,22.14
2023-01-31T04:31:37.813Z,22.15
2023-01-31T04:34:04.308Z,22.13
2023-01-31T04:36:30.716Z,22.13
2023-01-31T04:38:57.175Z,22.10
2023-01-31T04:41:23.631Z,22.10
2023-01-31T04:43:50.076Z,22.07
2023-01-31T04:46:16.511Z,22.06
2023-01-31T04:48:43.003Z,22.04
2023-01-31T04:51:09.758Z,22.06
2023-01-31T04:53:36.362Z,22.02
2023-01-31T04:56:03.884Z,22.03
2023-01-31T04:58:30.624Z,22.01
2023-01-31T05:00:57.301Z,21.98
2023-01-31T05:03:23.804Z,22.01
2023-01-31T05:05:51.256Z,22.00
2023-01-31T05:08:17.699Z,21.99
2023-01-31T05:10:44.174Z,21.99
2023-01-31T05:13:10.780Z,22.00
2023-01-31T05:15:38.325Z,21.99
2023-01-31T05:18:04.873Z,22.00
2023-01-31T05:20:34.993Z,21.98
2023-01-31T05:23:01.423Z,21.95
2023-01-31T05:25:27.876Z,21.96
2023-01-31T05:30:26.941Z,22.62
2023-01-31T05:32:53.547Z,22.89
2023-01-31T05:35:20.326Z,23.04
2023-01-31T05:37:47.047Z,23.14
2023-01-31T05:40:16.178Z,23.19
2023-01-31T05:42:43.126Z,23.27
2023-01-31T05:45:11.334Z,23.24
2023-01-31T05:47:37.815Z,23.29
2023-01-31T05:50:04.663Z,23.30
2023-01-31T05:52:31.076Z,23.32
2023-01-31T05:54:57.598Z,23.31
2023-01-31T05:57:24.071Z,23.15
2023-01-31T05:59:50.585Z,23.47
2023-01-31T06:02:17.085Z,23.59
2023-01-31T06:04:43.556Z,23.45
2023-01-31T06:07:09.971Z,23.40
2023-01-31T06:09:38.713Z,23.71
2023-01-31T06:12:05.537Z,23.26
2023-01-31T06:14:33.071Z,23.61
2023-01-31T06:16:59.684Z,23.69
2023-01-31T06:19:26.195Z,23.83
2023-01-31T06:21:52.671Z,23.77
2023-01-31T06:24:19.157Z,23.57
2023-01-31T06:26:45.609Z,23.75
2023-01-31T06:29:12.104Z,23.87
2023-01-31T06:31:38.679Z,23.90
2023-01-31T06:34:05.231Z,23.62
2023-01-31T06:36:33.966Z,23.74
2023-01-31T06:39:00.513Z,23.54
2023-01-31T06:41:27.001Z,23.55
2023-01-31T06:43:53.422Z,23.70
2023-01-31T06:46:19.917Z,23.78
2023-01-31T06:48:48.279Z,23.76
2023-01-31T06:51:15.785Z,23.59
2023-01-31T06:53:42.573Z,23.68
2023-01-31T06:56:09.661Z,23.76
2023-01-31T06:58:36.206Z,23.82
2023-01-31T07:01:07.998Z,23.71
2023-01-31T07:03:34.929Z,23.84
2023-01-31T07:06:01.633Z,23.65
2023-01-31T07:08:28.207Z,23.60
2023-01-31T07:10:54.693Z,23.72
2023-01-31T07:13:21.109Z,23.75
2023-01-31T07:15:47.606Z,23.63
2023-01-31T07:18:14.330Z,23.75
2023-01-31T07:20:42.104Z,23.86
2023-01-31T07:23:09.064Z,23.66
2023-01-31T07:25:36.198Z,23.86
2023-01-31T07:28:03.360Z,23.90
2023-01-31T07:30:30.402Z,23.95
2023-01-31T07:32:56.936Z,23.85
2023-01-31T07:35:23.480Z,23.95
2023-01-31T07:37:52.979Z,23.97
2023-01-31T07:40:19.544Z,23.87
2023-01-31T07:42:46.258Z,24.07
2023-01-31T07:45:23.377Z,24.09
2023-01-31T07:47:50.939Z,24.03
2023-01-31T07:50:17.757Z,24.13
2023-01-31T07:52:44.216Z,24.11
2023-01-31T07:55:10.653Z,23.99
2023-01-31T07:57:37.111Z,24.13
2023-01-31T08:00:04.507Z,23.98
2023-01-31T08:02:56.695Z,24.02
2023-01-31T08:05:23.441Z,23.96
2023-01-31T08:08:09.970Z,23.99
2023-01-31T08:10:36.670Z,23.93
2023-01-31T08:13:03.092Z,23.93
2023-01-31T08:15:29.614Z,23.75
2023-01-31T08:17:56.062Z,23.92
2023-01-31T08:20:22.491Z,23.92
2023-01-31T08:22:48.927Z,23.86
2023-01-31T08:25:15.398Z,23.75
2023-01-31T08:27:41.835Z,24.00
2023-01-31T08:30:09.131Z,23.97
2023-01-31T08:32:35.572Z,23.87
2023-01-31T08:35:01.991Z,23.76
2023-01-31T08:37:28.400Z,23.78
2023-01-31T08:39:54.826Z,24.06
2023-01-31T08:42:21.268Z,24.06
2023-01-31T08:44:47.740Z,23.76
2023-01-31T08:47:14.211Z,23.91
2023-01-31T08:49:40.719Z,23.89
2023-01-31T08:52:07.541Z,23.86
2023-01-31T08:54:33.942Z,23.88
2023-01-31T08:57:00.444Z,23.99
2023-01-31T08:59:27.167Z,23.98
2023-01-31T09:01:53.679Z,24.05
2023-01-31T09:04:20.227Z,23.86
2023-01-31T09:06:46.749Z,23.95
2023-01-31T09:09:13.270Z,23.91
2023-01-31T09:11:39.752Z,23.93
2023-01-31T09:14:06.314Z,24.00
2023-01-31T09:16:32.834Z,24.00
2023-01-31T09:18:59.305Z,23.68
2023-01-31T09:21:25.846Z,23.85
2023-01-31T09:23:58.208Z,23.99
2023-01-31T09:26:24.716Z,24.00
2023-01-31T09:28:51.337Z,23.84
2023-01-31T09:31:20.732Z,24.02
2023-01-31T09:33:47.815Z,23.84
2023-01-31T09:36:16.947Z,24.03
2023-01-31T09:38:44.281Z,23.91
2023-01-31T09:41:26.820Z,23.97
2023-01-31T09:44:02.758Z,23.83
2023-01-31T09:46:36.361Z,23.72
2023-01-31T09:49:06.039Z,23.81
2023-01-31T09:51:34.936Z,23.76
2023-01-31T09:54:03.996Z,23.79
2023-01-31T09:56:30.710Z,23.95
2023-01-31T09:59:15.997Z,23.91
2023-01-31T10:01:53.556Z,23.85
2023-01-31T10:05:02.978Z,23.76
2023-01-31T10:07:42.191Z,23.90
2023-01-31T10:10:23.684Z,23.84
2023-01-31T10:12:55.342Z,23.90
2023-01-31T10:15:51.184Z,23.84
2023-01-31T10:18:30.763Z,23.77
2023-01-31T10:21:05.307Z,23.46
2023-01-31T10:23:40.010Z,23.63
2023-01-31T10:26:14.731Z,23.67
2023-01-31T10:29:06.723Z,23.63
2023-01-31T10:31:42.215Z,23.74
2023-01-31T10:34:35.008Z,23.79
2023-01-31T10:37:07.265Z,23.72
2023-01-31T10:39:46.481Z,23.87
2023-01-31T10:42:28.135Z,23.95
2023-01-31T10:45:13.542Z,24.00
2023-01-31T10:47:50.801Z,24.08
2023-01-31T10:50:40.010Z,24.05
2023-01-31T10:53:30.380Z,24.05
2023-01-31T10:56:11.146Z,24.09
2023-01-31T10:58:38.444Z,24.08
2023-01-31T11:01:08.654Z,24.12
2023-01-31T11:03:35.250Z,24.13
2023-01-31T11:06:01.715Z,24.10
2023-01-31T11:08:46.839Z,24.23
2023-01-31T11:11:19.430Z,24.10
2023-01-31T11:14:18.789Z,24.26
2023-01-31T11:16:45.769Z,24.01
2023-01-31T11:19:28.462Z,24.17
2023-01-31T11:21:55.964Z,24.29
2023-01-31T11:24:25.010Z,24.10
2023-01-31T11:27:05.565Z,24.22
2023-01-31T11:29:50.845Z,24.21
2023-01-31T11:32:24.464Z,24.05
2023-01-31T11:35:04.770Z,24.17
2023-01-31T11:37:34.668Z,24.16
2023-01-31T11:40:16.620Z,24.15
2023-01-31T11:42:54.609Z,24.19
2023-01-31T11:45:23.647Z,24.05
2023-01-31T11:47:52.939Z,23.91
2023-01-31T11:50:24.951Z,23.98
2023-01-31T11:53:15.344Z,24.14
2023-01-31T11:55:43.513Z,24.11
2023-01-31T11:58:20.875Z,24.17
2023-01-31T12:01:15.963Z,24.14
2023-01-31T12:04:01.893Z,24.01
2023-01-31T12:06:34.063Z,24.12
2023-01-31T12:09:04.214Z,23.93
2023-01-31T12:11:33.687Z,24.08
2023-01-31T12:14:14.551Z,23.69
2023-01-31T12:16:42.499Z,24.08
2023-01-31T12:19:25.661Z,24.00
2023-01-31T12:22:15.303Z,24.06
2023-01-31T12:25:00.653Z,24.05
2023-01-31T12:27:39.301Z,24.06
2023-01-31T12:30:37.943Z,24.01
2023-01-31T12:33:22.759Z,24.00
2023-01-31T12:36:23.422Z,23.98
2023-01-31T12:38:55.556Z,23.80
2023-01-31T12:41:36.529Z,23.80
2023-01-31T12:44:21.772Z,23.96
2023-01-31T12:47:10.578Z,23.98
2023-01-31T12:50:06.905Z,23.99
2023-01-31T12:52:53.484Z,23.78
2023-01-31T12:55:32.403Z,23.95
2023-01-31T12:58:26.295Z,23.93
2023-01-31T13:01:06.622Z,23.76
2023-01-31T13:03:57.938Z,23.90
2023-01-31T13:06:37.189Z,23.75
2023-01-31T13:09:10.882Z,23.73
2023-01-31T13:11:47.771Z,23.49
2023-01-31T13:14:20.239Z,23.81
2023-01-31T13:16:48.740Z,23.90
2023-01-31T13:19:25.442Z,23.85
2023-01-31T13:21:58.059Z,23.50
2023-01-31T13:24:31.260Z,23.65
2023-01-31T13:27:03.313Z,23.74
2023-01-31T13:29:44.403Z,23.33
2023-01-31T13:32:19.455Z,23.76
2023-01-31T13:35:18.081Z,23.78
2023-01-31T13:37:48.363Z,23.62
2023-01-31T13:40:20.534Z,23.74
2023-01-31T13:42:47.224Z,23.64
2023-01-31T13:45:29.282Z,23.60
2023-01-31T13:48:06.921Z,23.64
2023-01-31T13:50:42.221Z,23.74
2023-01-31T13:53:23.498Z,23.75
2023-01-31T13:55:51.279Z,23.65
2023-01-31T13:58:34.435Z,23.75
2023-01-31T14:01:08.797Z,23.60
2023-01-31T14:04:21.639Z,23.78
2023-01-31T14:06:57.140Z,23.85
2023-01-31T14:09:29.309Z,23.77
2023-01-31T14:11:58.141Z,23.96
2023-01-31T14:14:41.165Z,24.01
2023-01-31T14:17:13.132Z,23.91
2023-01-31T14:19:42.524Z,24.12
2023-01-31T14:22:35.365Z,24.14
2023-01-31T14:25:10.854Z,24.17
2023-01-31T14:27:46.519Z,24.18
2023-01-31T14:30:37.244Z,24.20
2023-01-31T14:33:17.165Z,24.06
2023-01-31T14:36:21.002Z,24.13
2023-01-31T14:39:02.700Z,24.19
2023-01-31T14:41:47.705Z,23.97
2023-01-31T14:44:46.013Z,24.20
2023-01-31T14:47:32.502Z,24.08
2023-01-31T14:50:23.524Z,24.16
2023-01-31T14:53:29.060Z,24.18
2023-01-31T14:56:01.551Z,24.15
2023-01-31T14:58:31.704Z,24.02
2023-01-31T15:01:02.203Z,23.88
2023-01-31T15:03:36.264Z,24.06
2023-01-31T15:06:10.245Z,23.74
2023-01-31T15:08:51.141Z,24.13
2023-01-31T15:11:40.241Z,24.10
2023-01-31T15:14:41.359Z,24.12
2023-01-31T15:17:33.687Z,24.04
2023-01-31T15:20:19.679Z,24.07
2023-01-31T15:22:47.701Z,24.04
2023-01-31T15:25:34.841Z,24.10
2023-01-31T15:28:03.321Z,24.11
2023-01-31T15:30:33.987Z,23.84
2023-01-31T15:33:08.357Z,24.06
2023-01-31T15:35:37.034Z,23.76
2023-01-31T15:38:19.088Z,24.05
2023-01-31T15:40:45.526Z,23.71
2023-01-31T15:43:23.297Z,23.58
2023-01-31T15:45:52.383Z,24.00
2023-01-31T15:48:21.025Z,23.87
2023-01-31T15:50:59.347Z,24.00
2023-01-31T15:53:30.394Z,23.64
2023-01-31T15:56:03.218Z,23.92
2023-01-31T15:58:31.601Z,23.86
2023-01-31T16:00:59.959Z,23.83
2023-01-31T16:03:29.597Z,23.60
2023-01-31T16:05:59.969Z,23.92
2023-01-31T16:08:36.738Z,23.93
2023-01-31T16:11:06.303Z,23.57
2023-01-31T16:13:36.593Z,23.91
2023-01-31T16:16:10.483Z,23.91
2023-01-31T16:18:38.161Z,23.90
2023-01-31T16:21:31.567Z,23.90
2023-01-31T16:24:18.455Z,23.91
2023-01-31T16:26:57.955Z,23.92
2023-01-31T16:29:49.622Z,23.76
2023-01-31T16:32:27.427Z,23.88
2023-01-31T16:35:03.390Z,23.86
2023-01-31T16:37:39.342Z,23.55
2023-01-31T16:40:18.194Z,23.88
2023-01-31T16:42:44.850Z,23.67
2023-01-31T16:45:34.426Z,23.84
2023-01-31T16:48:34.653Z,23.85
2023-01-31T16:51:28.039Z,23.85
2023-01-31T16:54:19.692Z,23.74
2023-01-31T16:57:01.529Z,23.87
2023-01-31T17:02:24.615Z,14.77
2023-01-31T17:04:53.856Z,10.66
2023-01-31T17:07:24.011Z,8.13
2023-01-31T17:09:55.735Z,6.47
2023-01-31T17:12:26.042Z,5.73
2023-01-31T17:14:57.283Z,4.91
2023-01-31T17:17:27.869Z,4.48
2023-01-31T17:19:54.965Z,4.42
2023-01-31T17:22:22.547Z,3.96
2023-01-31T17:24:50.442Z,3.65
2023-01-31T17:27:18.711Z,3.52
2023-01-31T17:29:48.178Z,3.42
2023-01-31T17:32:20.118Z,3.51
2023-01-31T17:34:48.584Z,3.40
2023-01-31T17:37:20.758Z,3.18
2023-01-31T17:39:50.189Z,2.89
2023-01-31T17:42:19.357Z,3.00
2023-01-31T17:44:46.641Z,3.11
2023-01-31T17:47:13.875Z,2.81
2023-01-31T17:49:40.360Z,3.05
2023-01-31T17:52:06.920Z,2.99
2023-01-31T17:54:33.431Z,3.06
2023-01-31T17:56:59.847Z,2.92
2023-01-31T17:59:27.634Z,2.80
2023-01-31T18:01:54.554Z,2.92
2023-01-31T18:04:21.128Z,2.74
2023-01-31T18:06:47.699Z,2.55
2023-01-31T18:09:16.210Z,2.91
2023-01-31T18:11:43.751Z,2.70
2023-01-31T18:14:11.962Z,2.92
2023-01-31T18:16:38.791Z,2.98
2023-01-31T18:19:05.384Z,3.01
2023-01-31T18:21:32.366Z,2.95
2023-01-31T18:23:59.949Z,2.96
2023-01-31T18:26:26.699Z,2.85
2023-01-31T18:28:55.345Z,2.95
2023-01-31T18:31:22.003Z,2.91
2023-01-31T18:33:48.883Z,2.95
2023-01-31T18:36:19.329Z,3.05
2023-01-31T18:38:47.475Z,2.89
2023-01-31T18:41:15.742Z,2.95
2023-01-31T18:43:42.944Z,2.96
2023-01-31T18:46:10.292Z,2.98
2023-01-31T18:48:37.460Z,2.93
2023-01-31T18:51:07.683Z,2.95
2023-01-31T18:53:36.435Z,2.69
2023-01-31T18:56:28.723Z,3.01
2023-01-31T18:58:55.354Z,2.80
2023-01-31T19:01:24.107Z,3.04
2023-01-31T19:03:55.243Z,2.97
2023-01-31T19:06:24.422Z,2.89
2023-01-31T19:08:54.024Z,2.99
2023-01-31T19:11:22.816Z,2.99
2023-01-31T19:13:49.725Z,2.93
2023-01-31T19:16:21.922Z,3.09
2023-01-31T19:18:49.855Z,3.02
2023-01-31T19:21:28.117Z,2.95
2023-01-31T19:23:57.951Z,3.00
2023-01-31T19:26:25.658Z,2.98
2023-01-31T19:28:52.827Z,3.01
2023-01-31T19:31:22.302Z,3.03
2023-01-31T19:33:50.837Z,2.98
2023-01-31T19:36:20.773Z,3.04
2023-01-31T19:38:48.397Z,3.03
2023-01-31T19:41:18.963Z,2.97
2023-01-31T19:43:47.739Z,2.83
2023-01-31T19:46:14.300Z,3.02
2023-01-31T19:48:40.736Z,3.01
2023-01-31T19:51:09.395Z,3.07
2023-01-31T19:53:37.324Z,3.05
2023-01-31T19:56:04.190Z,2.98
2023-01-31T19:58:31.620Z,3.00
2023-01-31T20:00:59.347Z,2.99
2023-01-31T20:03:25.827Z,3.03
2023-01-31T20:05:52.468Z,3.03
2023-01-31T20:08:19.269Z,3.11
2023-01-31T20:10:46.167Z,2.87
2023-01-31T20:13:12.908Z,3.12
2023-01-31T20:15:39.424Z,3.04
2023-01-31T20:18:05.933Z,2.97
2023-01-31T20:20:32.471Z,3.04
2023-01-31T20:22:58.862Z,2.99
2023-01-31T20:25:25.424Z,3.05
2023-01-31T20:27:51.871Z,3.07
2023-01-31T20:30:20.501Z,3.16
2023-01-31T20:32:47.175Z,3.12
2023-01-31T20:35:13.661Z,3.03
2023-01-31T20:37:40.388Z,3.02
2023-01-31T20:40:07.405Z,2.97
2023-01-31T20:42:33.881Z,3.18
2023-01-31T20:45:00.315Z,3.02
2023-01-31T20:47:26.855Z,3.07
2023-01-31T20:49:53.289Z,3.05
2023-01-31T20:52:21.363Z,3.12
2023-01-31T20:54:47.789Z,3.01
2023-01-31T20:57:14.210Z,3.00
2023-01-31T20:59:40.644Z,3.00
2023-01-31T21:02:09.945Z,2.88
2023-01-31T21:04:36.848Z,3.00
2023-01-31T21:07:04.743Z,2.91
2023-01-31T21:09:33.119Z,2.88
2023-01-31T21:11:59.563Z,3.00
2023-01-31T21:14:28.146Z,3.05
2023-01-31T21:16:55.673Z,3.04
2023-01-31T21:19:23.233Z,2.96
2023-01-31T21:21:49.769Z,2.98
2023-01-31T21:24:16.193Z,2.90
2023-01-31T21:26:42.664Z,2.90
2023-01-31T21:29:09.299Z,2.93
2023-01-31T21:31:35.982Z,2.86
2023-01-31T21:34:05.591Z,2.84
2023-01-31T21:36:34.175Z,2.72
2023-01-31T21:39:00.731Z,2.71
2023-01-31T21:41:45.896Z,2.74
2023-01-31T21:44:12.417Z,2.85
2023-01-31T21:46:38.988Z,2.84
2023-01-31T21:49:05.524Z,2.79
2023-01-31T21:51:32.015Z,2.61
2023-01-31T21:53:58.428Z,2.58
2023-01-31T21:56:27.255Z,2.69
2023-01-31T21:58:55.053Z,2.60
2023-01-31T22:01:30.892Z,2.78
2023-01-31T22:03:58.254Z,2.78
2023-01-31T22:06:37.068Z,2.61
2023-01-31T22:09:04.938Z,2.65
2023-01-31T22:11:35.348Z,2.72
2023-01-31T22:14:05.003Z,2.61
2023-01-31T22:16:31.793Z,2.69
2023-01-31T22:19:02.759Z,2.83
2023-01-31T22:21:33.087Z,2.80
2023-01-31T22:24:01.366Z,2.52
2023-01-31T22:26:31.001Z,2.75
2023-01-31T22:28:59.947Z,2.79
2023-01-31T22:31:27.079Z,2.69
2023-01-31T22:33:56.096Z,2.80
2023-01-31T22:36:24.751Z,2.79
2023-01-31T22:38:51.328Z,2.72
2023-01-31T22:41:19.986Z,2.83
2023-01-31T22:43:48.896Z,2.83
2023-01-31T22:46:18.201Z,2.77
2023-01-31T22:48:46.599Z,2.82
2023-01-31T22:51:15.136Z,2.80
2023-01-31T22:53:42.212Z,2.74
2023-01-31T22:56:12.750Z,3.00
2023-01-31T22:58:39.299Z,2.90
2023-01-31T23:01:21.145Z,2.89
2023-01-31T23:03:48.346Z,2.85
2023-01-31T23:06:16.807Z,2.81
2023-01-31T23:08:44.152Z,2.85
2023-01-31T23:11:13.295Z,2.89
2023-01-31T23:13:40.113Z,2.97
2023-01-31T23:16:07.717Z,3.00
2023-01-31T23:18:35.239Z,2.99
2023-01-31T23:21:20.058Z,2.91
2023-01-31T23:23:46.772Z,2.87
2023-01-31T23:26:13.464Z,2.94
2023-01-31T23:28:40.784Z,2.93
2023-01-31T23:31:07.583Z,2.89
2023-01-31T23:33:34.397Z,2.86
2023-01-31T23:36:00.853Z,3.02
2023-01-31T23:38:27.609Z,3.05
2023-01-31T23:40:54.765Z,3.06
2023-01-31T23:43:22.370Z,3.05
2023-01-31T23:45:49.252Z,3.07
2023-01-31T23:48:16.004Z,3.09
2023-01-31T23:50:42.538Z,2.94
2023-01-31T23:53:09.204Z,3.07
2023-01-31T23:55:35.682Z,2.95
2023-01-31T23:58:02.386Z,2.91
